Time;durP1;ratioP1;P1;durP2;ratioP2;P2;SDS_P1;SDS_P2;PMS_P1;PMS_P2;Temp;Humidity;BMP_temperature;BMP_pressure;BME280_temperature;BME280_humidity;BME280_pressure;Samples;Min_cycle;Max_cycle;Signal;HPM_P1;HPM_P2
2023/12/13 00:01:23;;;;;;;5.13;2.85;;;;;;;7.21;100.00;99817.91;5071065;28;20024;-71
2023/12/13 00:03:50;;;;;;;7.22;3.40;;;;;;;7.22;100.00;99804.00;5071266;28;20032;-71
2023/12/13 00:06:15;;;;;;;8.68;3.63;;;;;;;7.17;100.00;99772.50;5074338;28;20108;-71
2023/12/13 00:08:41;;;;;;;5.60;3.25;;;;;;;7.11;100.00;99765.28;5076654;28;20143;-71
2023/12/13 00:11:07;;;;;;;8.23;3.10;;;;;;;7.10;100.00;99748.13;5071918;28;20032;-71
2023/12/13 00:13:33;;;;;;;8.75;3.30;;;;;;;7.11;100.00;99744.56;5067041;28;20028;-70
2023/12/13 00:16:00;;;;;;;5.55;2.40;;;;;;;7.13;100.00;99747.84;5077568;28;20032;-70
2023/12/13 00:18:25;;;;;;;11.65;3.38;;;;;;;7.17;100.00;99744.00;5076423;28;20056;-70
2023/12/13 00:20:51;;;;;;;13.25;3.17;;;;;;;7.20;100.00;99733.38;5072308;28;20461;-70
2023/12/13 00:23:16;;;;;;;8.98;2.80;;;;;;;7.21;100.00;99729.81;5071075;28;20032;-70
2023/12/13 00:25:42;;;;;;;7.07;2.65;;;;;;;7.23;100.00;99733.91;5071344;28;20054;-70
2023/12/13 00:28:07;;;;;;;7.13;2.72;;;;;;;7.24;100.00;99721.78;5072516;28;20055;-70
2023/12/13 00:30:33;;;;;;;7.18;2.67;;;;;;;7.25;100.00;99726.00;5072190;28;20029;-71
2023/12/13 00:32:59;;;;;;;9.98;2.90;;;;;;;7.26;100.00;99722.44;5071105;28;20123;-70
2023/12/13 00:35:24;;;;;;;8.75;3.13;;;;;;;7.25;100.00;99710.44;5069749;28;20060;-70
2023/12/13 00:37:50;;;;;;;5.90;2.08;;;;;;;7.23;100.00;99723.53;5071468;28;20205;-70
2023/12/13 00:40:17;;;;;;;4.63;2.65;;;;;;;7.22;100.00;99706.38;5054767;28;20170;-70
2023/12/13 00:42:43;;;;;;;6.70;2.67;;;;;;;7.22;100.00;99700.38;5069442;28;20033;-70
2023/12/13 00:45:08;;;;;;;7.85;2.80;;;;;;;7.19;100.00;99690.28;5072627;28;20042;-71
2023/12/13 00:47:34;;;;;;;5.18;2.75;;;;;;;7.16;100.00;99698.34;5074855;28;20119;-70
2023/12/13 00:49:59;;;;;;;10.15;3.63;;;;;;;7.16;100.00;99691.38;5070037;28;20099;-71
2023/12/13 00:52:26;;;;;;;5.00;2.42;;;;;;;7.13;100.00;99690.84;5069958;28;20038;-71
2023/12/13 00:54:52;;;;;;;6.28;2.40;;;;;;;7.10;100.00;99683.34;5075744;28;20032;-70
2023/12/13 00:57:17;;;;;;;3.22;1.70;;;;;;;7.08;100.00;99682.72;5074463;28;20477;-70
2023/12/13 00:59:43;;;;;;;7.72;2.28;;;;;;;7.08;100.00;99682.72;5067229;28;20112;-71
2023/12/13 01:02:08;;;;;;;8.32;2.65;;;;;;;7.09;100.00;99689.53;5070281;28;20046;-70
2023/12/13 01:04:36;;;;;;;3.97;1.75;;;;;;;7.14;100.00;99690.72;5069268;28;20051;-70
2023/12/13 01:07:02;;;;;;;4.70;1.90;;;;;;;7.18;100.00;99688.66;5070045;28;20036;-70
2023/12/13 01:09:28;;;;;;;4.13;1.42;;;;;;;7.20;100.00;99694.50;5074756;28;20032;-70
2023/12/13 01:11:53;;;;;;;3.83;1.90;;;;;;;7.21;100.00;99675.41;5071212;28;20111;-70
2023/12/13 01:14:18;;;;;;;6.20;2.30;;;;;;;7.22;100.00;99669.28;5070270;28;20024;-70
2023/12/13 01:16:44;;;;;;;1.67;1.02;;;;;;;7.24;100.00;99665.59;5076375;28;20038;-70
2023/12/13 01:19:10;;;;;;;6.22;1.60;;;;;;;7.25;100.00;99658.63;5070904;28;20525;-70
2023/12/13 01:21:35;;;;;;;6.15;1.98;;;;;;;7.25;100.00;99651.69;5071164;28;20127;-70
2023/12/13 01:24:01;;;;;;;3.30;1.42;;;;;;;7.23;100.00;99639.81;5068798;28;20375;-70
2023/12/13 01:26:26;;;;;;;3.78;1.20;;;;;;;7.21;100.00;99632.19;5071804;28;20037;-70
2023/12/13 01:28:52;;;;;;;3.25;1.50;;;;;;;7.22;100.00;99636.41;5069312;28;20025;-71
2023/12/13 01:31:18;;;;;;;2.22;1.33;;;;;;;7.24;100.00;99631.09;5070234;28;20060;-70
2023/12/13 01:33:43;;;;;;;4.15;1.95;;;;;;;7.26;100.00;99635.16;5071045;28;20087;-70
2023/12/13 01:36:09;;;;;;;4.53;1.33;;;;;;;7.26;100.00;99624.00;5069741;28;20032;-70
2023/12/13 01:38:35;;;;;;;3.65;1.58;;;;;;;7.26;100.00;99619.63;5067030;28;20074;-71
2023/12/13 01:41:02;;;;;;;2.22;0.90;;;;;;;7.23;100.00;99611.31;5066308;28;20066;-71
2023/12/13 01:43:28;;;;;;;2.85;1.25;;;;;;;7.24;100.00;99615.53;5067586;28;20496;-71
2023/12/13 01:45:56;;;;;;;3.38;0.70;;;;;;;7.26;100.00;99614.44;5105877;27;20040;-70
2023/12/13 01:48:23;;;;;;;4.63;1.23;;;;;;;7.28;100.00;99616.88;5070307;28;20099;-70
2023/12/13 01:50:50;;;;;;;2.55;0.93;;;;;;;7.28;100.00;99611.72;5070970;28;20051;-70
2023/12/13 01:53:18;;;;;;;3.33;1.00;;;;;;;7.29;100.00;99608.16;5069889;28;20048;-70
2023/12/13 01:55:43;;;;;;;4.07;1.58;;;;;;;7.28;100.00;99588.38;5070784;28;20032;-70
2023/12/13 01:58:11;;;;;;;3.70;1.15;;;;;;;7.24;100.00;99576.69;5070462;28;20028;-70
2023/12/13 02:00:38;;;;;;;3.58;0.90;;;;;;;7.20;100.00;99573.56;5069484;28;20033;-70
2023/12/13 02:03:04;;;;;;;1.55;0.90;;;;;;;7.21;100.00;99564.00;5068926;28;20028;-70
2023/12/13 02:05:32;;;;;;;2.13;0.75;;;;;;;7.23;100.00;99551.72;5069957;28;20032;-70
2023/12/13 02:07:57;;;;;;;2.60;0.82;;;;;;;7.23;100.00;99551.72;5073267;28;20055;-70
2023/12/13 02:10:23;;;;;;;2.15;0.60;;;;;;;7.24;100.00;99553.38;5069268;28;20032;-70
2023/12/13 02:12:49;;;;;;;3.15;0.60;;;;;;;7.26;100.00;99557.44;5071603;28;20097;-70
2023/12/13 02:15:14;;;;;;;4.20;0.68;;;;;;;7.27;100.00;99558.25;5076080;28;20028;-71
2023/12/13 02:17:50;;;;;;;2.53;0.60;;;;;;;7.27;100.00;99546.13;5069802;28;20028;-70
2023/12/13 02:20:15;;;;;;;3.22;0.70;;;;;;;7.30;100.00;99547.59;5073689;28;20358;-70
2023/12/13 02:22:41;;;;;;;1.15;0.43;;;;;;;7.24;100.00;99538.63;5073270;28;20051;-71
2023/12/13 02:25:14;;;;;;;1.73;0.63;;;;;;;7.22;100.00;99535.38;5069577;28;20085;-71
2023/12/13 02:27:40;;;;;;;1.65;0.70;;;;;;;7.15;100.00;99534.31;5070813;28;20029;-70
2023/12/13 02:30:07;;;;;;;1.65;0.85;;;;;;;6.95;100.00;99533.63;5070891;28;20031;-71
2023/12/13 02:32:32;;;;;;;2.17;0.60;;;;;;;6.92;100.00;99538.28;5067455;28;20036;-70
2023/12/13 02:34:58;;;;;;;1.83;0.70;;;;;;;6.94;100.00;99544.94;5068089;28;20094;-70
2023/12/13 02:37:24;;;;;;;1.98;0.73;;;;;;;6.98;100.00;99528.16;5074984;28;20079;-70
2023/12/13 02:39:50;;;;;;;2.05;0.70;;;;;;;6.99;100.00;99532.38;5077462;28;20024;-70
2023/12/13 02:42:16;;;;;;;1.55;0.40;;;;;;;7.03;100.00;99550.22;5075719;28;20119;-70
2023/12/13 02:44:43;;;;;;;1.85;0.75;;;;;;;7.08;100.00;99563.56;5072694;28;20613;-70
2023/12/13 02:47:09;;;;;;;1.98;0.80;;;;;;;7.06;100.00;99545.56;5078082;28;20032;-70
2023/12/13 02:49:35;;;;;;;3.13;0.55;;;;;;;7.03;100.00;99539.88;5070974;28;20031;-70
2023/12/13 02:52:01;;;;;;;1.35;0.68;;;;;;;6.99;100.00;99519.44;5071999;28;20040;-69
2023/12/13 02:54:26;;;;;;;2.17;0.63;;;;;;;6.99;100.00;99487.53;5073027;28;20046;-69
2023/12/13 02:56:52;;;;;;;1.88;0.60;;;;;;;6.99;100.00;99483.19;5074191;28;20032;-69
2023/12/13 02:59:17;;;;;;;2.65;1.08;;;;;;;7.03;100.00;99490.66;5077126;28;20036;-69
2023/12/13 03:01:43;;;;;;;1.98;0.85;;;;;;;7.10;100.00;99495.09;5070931;28;20105;-69
2023/12/13 03:04:08;;;;;;;2.75;0.93;;;;;;;7.15;100.00;99485.09;5074155;28;20502;-69
2023/12/13 03:06:33;;;;;;;2.55;0.85;;;;;;;7.21;100.00;99481.13;5071639;28;20087;-69
2023/12/13 03:08:59;;;;;;;1.00;0.50;;;;;;;7.23;100.00;99500.72;5074232;28;20114;-70
2023/12/13 03:11:25;;;;;;;2.33;0.50;;;;;;;7.25;100.00;99493.63;5072514;28;20035;-69
2023/12/13 03:13:50;;;;;;;1.80;0.63;;;;;;;7.25;100.00;99461.72;5070642;28;20028;-70
2023/12/13 03:16:16;;;;;;;1.50;0.45;;;;;;;7.25;100.00;99459.13;5073003;28;20028;-69
2023/12/13 03:18:41;;;;;;;1.48;0.63;;;;;;;7.26;100.00;99461.56;5071194;28;20021;-69
2023/12/13 03:21:07;;;;;;;1.70;0.57;;;;;;;7.29;100.00;99455.28;5072042;28;20110;-70
2023/12/13 03:23:32;;;;;;;0.82;0.45;;;;;;;7.27;100.00;99432.13;5073437;28;20048;-70
2023/12/13 03:25:57;;;;;;;2.63;0.60;;;;;;;7.26;100.00;99437.44;5072383;28;20036;-69
2023/12/13 03:28:23;;;;;;;0.88;0.30;;;;;;;7.23;100.00;99433.38;5071242;28;20044;-70
2023/12/13 03:30:48;;;;;;;0.68;0.17;;;;;;;7.22;100.00;99431.75;5071699;28;20032;-69
2023/12/13 03:33:14;;;;;;;1.55;0.65;;;;;;;7.24;100.00;99445.38;5073495;28;20043;-70
2023/12/13 03:35:39;;;;;;;0.68;0.22;;;;;;;7.26;100.00;99442.63;5076712;28;20135;-70
2023/12/13 03:38:05;;;;;;;0.65;0.30;;;;;;;7.26;100.00;99435.66;5076197;28;20030;-70
2023/12/13 03:40:31;;;;;;;1.52;0.30;;;;;;;7.27;100.00;99439.88;5071451;28;20047;-69
2023/12/13 03:42:56;;;;;;;0.98;0.30;;;;;;;7.30;100.00;99436.19;5073872;28;20036;-70
2023/12/13 03:45:24;;;;;;;1.23;0.38;;;;;;;7.32;100.00;99426.50;5072659;28;20051;-70
2023/12/13 03:47:49;;;;;;;1.58;0.40;;;;;;;7.31;100.00;99422.28;5072587;28;20029;-69
2023/12/13 03:50:15;;;;;;;0.65;0.30;;;;;;;7.28;100.00;99420.78;5071874;28;20031;-69
2023/12/13 03:52:40;;;;;;;0.20;0.20;;;;;;;7.28;100.00;99414.78;5069660;28;20377;-69
2023/12/13 03:55:07;;;;;;;1.17;0.30;;;;;;;7.31;100.00;99407.53;5074241;28;20032;-69
2023/12/13 03:57:32;;;;;;;0.75;0.20;;;;;;;7.30;100.00;99397.31;5070512;28;20033;-69
2023/12/13 03:59:58;;;;;;;0.85;0.22;;;;;;;7.33;100.00;99400.44;5074177;28;20023;-69
2023/12/13 04:02:23;;;;;;;1.58;0.32;;;;;;;7.31;100.00;99397.19;5071211;28;20811;-69
2023/12/13 04:04:49;;;;;;;1.00;0.25;;;;;;;7.32;100.00;99395.41;5093528;28;20097;-70
2023/12/13 04:07:15;;;;;;;1.23;0.17;;;;;;;7.32;100.00;99385.84;5076039;28;20500;-69
2023/12/13 04:09:40;;;;;;;0.60;0.20;;;;;;;7.29;100.00;99373.19;5071862;28;20065;-69
2023/12/13 04:12:06;;;;;;;0.80;0.30;;;;;;;7.29;100.00;99365.41;5075690;28;20035;-69
2023/12/13 04:14:31;;;;;;;4.13;0.40;;;;;;;7.31;100.00;99366.09;5073794;28;20102;-69
2023/12/13 04:16:57;;;;;;;0.70;0.10;;;;;;;7.33;100.00;99392.66;5074241;28;20042;-69
2023/12/13 04:19:23;;;;;;;0.50;0.20;;;;;;;7.36;100.00;99357.84;5073214;28;20047;-70
2023/12/13 04:21:48;;;;;;;1.42;0.30;;;;;;;7.38;100.00;99371.47;5073339;28;20028;-70
2023/12/13 04:24:13;;;;;;;1.02;0.30;;;;;;;7.40;100.00;99405.03;5069658;28;20047;-70
2023/12/13 04:26:39;;;;;;;1.50;0.30;;;;;;;7.42;100.00;99385.75;5075406;28;20028;-69
2023/12/13 04:29:05;;;;;;;0.73;0.30;;;;;;;7.43;100.00;99371.03;5074761;28;20036;-70
2023/12/13 04:31:30;;;;;;;1.83;0.30;;;;;;;7.43;100.00;99376.22;5071883;28;20133;-69
2023/12/13 04:33:56;;;;;;;4.30;0.40;;;;;;;7.43;100.00;99377.03;5071184;28;20490;-69
2023/12/13 04:36:22;;;;;;;0.88;0.30;;;;;;;7.42;100.00;99367.63;5070437;28;20120;-70
2023/12/13 04:38:48;;;;;;;0.43;0.15;;;;;;;7.38;100.00;99371.47;5071738;28;20056;-69
2023/12/13 04:41:13;;;;;;;0.57;0.20;;;;;;;7.39;100.00;99380.88;5074630;28;20051;-69
2023/12/13 04:43:39;;;;;;;0.60;0.25;;;;;;;7.41;100.00;99381.56;5070198;28;20111;-69
2023/12/13 04:46:05;;;;;;;0.93;0.25;;;;;;;7.41;100.00;99385.91;5070683;28;20047;-69
2023/12/13 04:48:30;;;;;;;0.88;0.28;;;;;;;7.42;100.00;99395.31;5071321;28;20087;-69
2023/12/13 04:50:57;;;;;;;0.73;0.15;;;;;;;7.43;100.00;99408.13;5072707;28;20029;-70
2023/12/13 04:53:22;;;;;;;0.20;0.10;;;;;;;7.39;100.00;99390.44;5072828;28;20064;-69
2023/12/13 04:55:48;;;;;;;0.73;0.13;;;;;;;7.26;100.00;99396.00;5072825;28;20391;-69
2023/12/13 04:58:13;;;;;;;1.27;0.20;;;;;;;7.17;100.00;99396.88;5070690;28;20508;-69
2023/12/13 05:00:39;;;;;;;0.35;0.10;;;;;;;7.13;100.00;99390.38;5073049;28;20086;-69
2023/12/13 05:03:04;;;;;;;0.68;0.17;;;;;;;7.15;100.00;99384.06;5071075;28;20064;-69
2023/12/13 05:05:30;;;;;;;0.40;0.20;;;;;;;7.21;100.00;99372.31;5070269;28;20129;-69
2023/12/13 05:07:55;;;;;;;0.50;0.20;;;;;;;7.27;100.00;99371.72;5072271;28;20032;-69
2023/12/13 05:10:21;;;;;;;0.57;0.10;;;;;;;7.31;100.00;99358.31;5068690;28;20048;-69
2023/12/13 05:12:46;;;;;;;1.48;0.10;;;;;;;7.32;100.00;99359.94;5071891;28;20427;-69
2023/12/13 05:15:12;;;;;;;0.10;0.00;;;;;;;7.36;100.00;99367.41;5069608;28;20055;-69
2023/12/13 05:17:37;;;;;;;0.28;0.10;;;;;;;7.38;100.00;99363.72;5070227;28;20043;-69
2023/12/13 05:20:04;;;;;;;0.98;0.20;;;;;;;7.40;100.00;99361.78;5071508;28;20034;-69
2023/12/13 05:22:29;;;;;;;0.45;0.10;;;;;;;7.45;100.00;99358.75;5071825;28;20073;-69
2023/12/13 05:24:55;;;;;;;2.83;0.20;;;;;;;7.47;100.00;99367.19;5068077;28;20040;-68
2023/12/13 05:27:20;;;;;;;1.00;0.20;;;;;;;7.49;100.00;99375.63;5073834;28;20029;-68
2023/12/13 05:29:46;;;;;;;0.40;0.17;;;;;;;7.49;100.00;99376.44;5069857;28;20032;-69
2023/12/13 05:32:11;;;;;;;0.90;0.20;;;;;;;7.49;100.00;99373.84;5071599;28;20370;-69
2023/12/13 05:34:37;;;;;;;1.05;0.10;;;;;;;7.50;100.00;99366.88;5065670;28;20123;-69
2023/12/13 05:37:05;;;;;;;0.40;0.10;;;;;;;7.48;100.00;99377.41;5070188;28;20082;-69
2023/12/13 05:39:31;;;;;;;0.50;0.20;;;;;;;7.51;100.00;99377.09;5069560;28;20036;-69
2023/12/13 05:41:57;;;;;;;0.30;0.10;;;;;;;7.51;100.00;99373.69;5070841;28;20032;-70
2023/12/13 05:44:22;;;;;;;0.93;0.10;;;;;;;7.53;100.00;99379.53;5074914;28;20043;-69
2023/12/13 05:46:48;;;;;;;0.95;0.10;;;;;;;7.53;100.00;99374.34;5071375;28;20040;-69
2023/12/13 05:49:15;;;;;;;2.95;0.10;;;;;;;7.54;100.00;99368.19;5074010;28;20064;-69
2023/12/13 05:51:40;;;;;;;0.63;0.10;;;;;;;7.54;100.00;99373.38;5070383;28;20036;-69
2023/12/13 05:54:06;;;;;;;0.93;0.10;;;;;;;7.56;100.00;99371.47;5069044;28;20481;-69
2023/12/13 05:56:32;;;;;;;1.58;0.60;;;;;;;7.56;100.00;99376.66;5069811;28;20036;-69
2023/12/13 05:58:57;;;;;;;2.90;1.38;;;;;;;7.57;100.00;99360.09;5070976;28;20047;-69
2023/12/13 06:01:23;;;;;;;1.15;0.47;;;;;;;7.59;100.00;99358.16;5067744;28;20385;-69
2023/12/13 06:03:48;;;;;;;0.95;0.20;;;;;;;7.59;100.00;99360.75;5070855;28;20032;-69
2023/12/13 06:06:13;;;;;;;0.93;0.30;;;;;;;7.57;100.00;99357.50;5072267;28;20100;-69
2023/12/13 06:08:40;;;;;;;1.02;0.45;;;;;;;7.56;100.00;99361.88;5069860;28;20474;-69
2023/12/13 06:11:07;;;;;;;0.82;0.35;;;;;;;7.58;100.00;99362.53;5074131;28;20517;-69
2023/12/13 06:13:32;;;;;;;2.67;0.60;;;;;;;7.61;100.00;99354.47;5067582;28;20492;-69
2023/12/13 06:15:58;;;;;;;3.10;0.40;;;;;;;7.60;100.00;99341.66;5070079;28;20039;-69
2023/12/13 06:18:23;;;;;;;2.20;0.40;;;;;;;7.66;100.00;99349.63;5068954;28;20029;-69
2023/12/13 06:20:49;;;;;;;1.38;0.50;;;;;;;7.71;100.00;99340.59;5072807;28;20358;-69
2023/12/13 06:23:14;;;;;;;1.25;0.40;;;;;;;7.72;100.00;99334.44;5068374;28;20047;-69
2023/12/13 06:25:40;;;;;;;3.28;0.57;;;;;;;7.74;100.00;99333.31;5070836;28;20024;-69
2023/12/13 06:28:05;;;;;;;1.05;0.47;;;;;;;7.74;100.00;99332.50;5069541;28;20114;-69
2023/12/13 06:30:31;;;;;;;0.55;0.30;;;;;;;7.75;100.00;99334.94;5065296;28;20066;-70
2023/12/13 06:32:56;;;;;;;2.53;0.40;;;;;;;7.76;100.00;99326.19;5071702;28;20063;-69
2023/12/13 06:35:22;;;;;;;0.77;0.30;;;;;;;7.80;100.00;99331.88;5067561;28;20052;-69
2023/12/13 06:37:47;;;;;;;1.02;0.30;;;;;;;7.79;100.00;99314.69;5069421;28;20564;-70
2023/12/13 06:40:14;;;;;;;0.90;0.40;;;;;;;7.77;100.00;99314.84;5070113;28;20077;-69
2023/12/13 06:42:41;;;;;;;1.67;0.60;;;;;;;7.81;100.00;99315.38;5068669;28;20028;-70
2023/12/13 06:45:07;;;;;;;1.50;0.63;;;;;;;7.79;100.00;99317.28;5070919;28;20043;-69
2023/12/13 06:47:32;;;;;;;3.15;1.10;;;;;;;7.77;100.00;99301.88;5068439;28;20037;-70
2023/12/13 06:49:58;;;;;;;2.00;1.60;;;;;;;7.76;100.00;99307.22;5069383;28;20029;-69
2023/12/13 06:52:23;;;;;;;2.10;1.13;;;;;;;7.75;100.00;99301.22;5067014;28;20040;-69
2023/12/13 06:54:49;;;;;;;1.42;0.75;;;;;;;7.80;100.00;99306.78;5075727;28;20037;-69
2023/12/13 06:57:16;;;;;;;5.18;1.02;;;;;;;7.83;100.00;99314.25;5073130;28;20029;-70
2023/12/13 06:59:42;;;;;;;2.67;1.02;;;;;;;7.83;100.00;99310.84;5069899;28;20028;-70
2023/12/13 07:02:07;;;;;;;1.52;0.77;;;;;;;7.86;100.00;99311.34;5067664;28;20089;-70
2023/12/13 07:04:35;;;;;;;1.30;0.57;;;;;;;7.88;100.00;99306.81;5069501;28;20040;-70
2023/12/13 07:07:01;;;;;;;2.75;0.77;;;;;;;7.90;100.00;99301.47;5070232;28;20036;-71
2023/12/13 07:09:26;;;;;;;2.42;1.00;;;;;;;7.89;100.00;99299.84;5067191;28;20504;-70
2023/12/13 07:11:52;;;;;;;3.00;1.10;;;;;;;7.90;100.00;99309.25;5068010;28;20020;-70
2023/12/13 07:14:17;;;;;;;3.30;1.20;;;;;;;7.91;100.00;99309.09;5070024;28;20034;-70
2023/12/13 07:16:43;;;;;;;2.17;1.00;;;;;;;7.91;100.00;99303.09;5070082;28;20397;-71
2023/12/13 07:19:09;;;;;;;2.53;0.98;;;;;;;7.93;100.00;99306.34;5068968;28;20071;-70
2023/12/13 07:21:35;;;;;;;3.33;1.38;;;;;;;7.92;100.00;99300.34;5069311;28;20042;-70
2023/12/13 07:24:00;;;;;;;8.95;0.90;;;;;;;7.87;100.00;99301.78;5071452;28;20663;-70
2023/12/13 07:26:26;;;;;;;4.35;1.08;;;;;;;7.83;100.00;99301.28;5072066;28;20024;-70
2023/12/13 07:28:51;;;;;;;2.85;0.50;;;;;;;7.77;100.00;99295.88;5073495;28;20033;-70
2023/12/13 07:31:18;;;;;;;4.35;0.52;;;;;;;7.75;100.00;99297.81;5071776;28;20111;-71
2023/12/13 07:33:43;;;;;;;3.25;0.50;;;;;;;7.76;100.00;99300.25;5070801;28;20548;-69
2023/12/13 07:36:12;;;;;;;5.60;1.20;;;;;;;7.78;100.00;99290.56;5068842;28;20037;-70
2023/12/13 07:38:38;;;;;;;4.93;0.65;;;;;;;7.77;100.00;99282.94;5103102;28;20041;-70
2023/12/13 07:41:04;;;;;;;1.70;0.40;;;;;;;7.80;100.00;99295.59;5070133;28;20070;-70
2023/12/13 07:43:29;;;;;;;2.22;0.32;;;;;;;7.82;100.00;99298.84;5072328;28;20597;-70
2023/12/13 07:45:55;;;;;;;1.65;0.50;;;;;;;7.83;100.00;99300.47;5071327;28;20074;-69
2023/12/13 07:48:24;;;;;;;1.77;0.40;;;;;;;7.87;100.00;99301.78;5070163;28;20042;-70
2023/12/13 07:50:51;;;;;;;2.35;0.43;;;;;;;7.88;100.00;99309.41;5071729;28;20213;-70
2023/12/13 07:53:17;;;;;;;3.08;0.30;;;;;;;7.91;100.00;99308.28;5071337;28;20094;-69
2023/12/13 07:55:42;;;;;;;3.15;0.57;;;;;;;7.95;100.00;99315.59;5072317;28;20028;-70
2023/12/13 07:58:08;;;;;;;1.92;0.52;;;;;;;7.95;100.00;99315.59;5072691;28;20052;-70
2023/12/13 08:00:33;;;;;;;1.50;0.40;;;;;;;7.92;100.00;99302.94;5070390;28;20544;-70
2023/12/13 08:02:59;;;;;;;0.88;0.25;;;;;;;7.87;100.00;99297.41;5070280;28;20033;-69
2023/12/13 08:05:24;;;;;;;0.57;0.20;;;;;;;7.79;100.00;99293.97;5071519;28;20128;-70
2023/12/13 08:07:50;;;;;;;1.33;0.25;;;;;;;7.73;100.00;99295.38;5072434;28;20073;-70
2023/12/13 08:10:15;;;;;;;5.40;0.65;;;;;;;7.72;100.00;99292.94;5071037;28;20031;-70
2023/12/13 08:12:44;;;;;;;5.25;0.70;;;;;;;7.71;100.00;99296.50;5084328;28;20124;-70
2023/12/13 08:15:10;;;;;;;2.97;0.40;;;;;;;7.73;100.00;99297.16;5073308;28;20032;-69
2023/12/13 08:17:36;;;;;;;2.35;0.22;;;;;;;7.76;100.00;99304.63;5070741;28;20060;-69
2023/12/13 08:20:02;;;;;;;2.88;0.43;;;;;;;7.76;100.00;99287.31;5071314;28;20496;-69
2023/12/13 08:22:28;;;;;;;1.58;0.40;;;;;;;7.78;100.00;99294.94;5070964;28;20122;-70
2023/12/13 08:24:54;;;;;;;3.55;0.40;;;;;;;7.83;100.00;99296.09;5070144;28;20108;-70
2023/12/13 08:27:19;;;;;;;3.20;0.28;;;;;;;7.86;100.00;99293.19;5070616;28;20033;-70
2023/12/13 08:29:44;;;;;;;1.05;0.30;;;;;;;7.89;100.00;99285.09;5069345;28;20521;-70
2023/12/13 08:32:10;;;;;;;1.08;0.30;;;;;;;7.91;100.00;99283.16;5071145;28;20539;-70
2023/12/13 08:34:36;;;;;;;0.50;0.20;;;;;;;7.95;100.00;99281.06;5070890;28;20049;-70
2023/12/13 08:37:01;;;;;;;0.50;0.15;;;;;;;8.01;100.00;99292.59;5071971;28;20385;-70
2023/12/13 08:39:27;;;;;;;0.45;0.20;;;;;;;8.07;100.00;99291.94;5070904;28;20460;-69
2023/12/13 08:41:53;;;;;;;4.35;0.50;;;;;;;8.13;100.00;99280.94;5071461;28;20041;-70
2023/12/13 08:44:18;;;;;;;1.92;0.45;;;;;;;8.14;100.00;99265.22;5071168;28;20094;-70
2023/12/13 08:46:45;;;;;;;1.13;0.43;;;;;;;8.17;100.00;99271.88;5072114;28;20021;-70
2023/12/13 08:49:11;;;;;;;1.00;0.20;;;;;;;8.16;100.00;99272.84;5071483;28;20032;-70
2023/12/13 08:51:37;;;;;;;1.52;0.28;;;;;;;8.15;100.00;99269.44;5071300;28;20493;-69
2023/12/13 08:54:03;;;;;;;1.40;0.25;;;;;;;8.15;100.00;99264.25;5072426;28;20173;-70
2023/12/13 08:56:29;;;;;;;3.60;0.30;;;;;;;8.19;100.00;99257.78;5070845;28;20459;-69
2023/12/13 08:58:54;;;;;;;1.83;0.63;;;;;;;8.19;100.00;99241.41;5071880;28;20024;-70
2023/12/13 09:01:20;;;;;;;1.05;0.30;;;;;;;8.22;100.00;99246.28;5070689;28;20028;-69
2023/12/13 09:03:46;;;;;;;2.22;0.57;;;;;;;8.24;100.00;99246.94;5070445;28;20036;-69
2023/12/13 09:06:14;;;;;;;2.15;0.55;;;;;;;8.23;100.00;99248.72;5073175;28;20028;-70
2023/12/13 09:08:39;;;;;;;3.67;0.70;;;;;;;8.24;100.00;99245.16;5102533;28;20119;-70
2023/12/13 09:11:05;;;;;;;4.60;1.13;;;;;;;8.25;100.00;99254.56;5071414;28;20452;-70
2023/12/13 09:13:32;;;;;;;4.25;0.70;;;;;;;8.28;100.00;99251.66;5070110;28;20036;-70
2023/12/13 09:15:58;;;;;;;2.45;0.50;;;;;;;8.24;100.00;99255.53;5071246;28;20028;-70
2023/12/13 09:18:23;;;;;;;2.90;0.70;;;;;;;8.19;100.00;99255.19;5070159;28;20028;-70
2023/12/13 09:20:49;;;;;;;1.90;0.60;;;;;;;8.15;100.00;99259.06;5071178;28;20484;-70
2023/12/13 09:23:25;;;;;;;1.10;0.30;;;;;;;8.10;100.00;99250.94;5070972;28;20081;-70
2023/12/13 09:25:51;;;;;;;1.77;0.55;;;;;;;8.09;100.00;99254.50;5068155;28;20440;-70
2023/12/13 09:28:17;;;;;;;4.75;0.63;;;;;;;8.08;100.00;99270.22;5069932;28;20127;-70
2023/12/13 09:30:44;;;;;;;1.73;0.50;;;;;;;8.07;100.00;99273.78;5070548;28;20037;-70
2023/12/13 09:33:11;;;;;;;1.42;0.40;;;;;;;8.06;100.00;99277.34;5070727;28;20039;-70
2023/12/13 09:35:43;;;;;;;2.60;0.50;;;;;;;8.06;100.00;99265.19;5067816;28;20413;-70
2023/12/13 09:38:09;;;;;;;3.05;0.60;;;;;;;8.01;100.00;99254.50;5070121;28;20032;-71
2023/12/13 09:40:34;;;;;;;2.00;0.57;;;;;;;7.93;100.00;99251.88;5066007;28;20048;-71
2023/12/13 09:43:02;;;;;;;2.10;0.55;;;;;;;7.87;100.00;99247.31;5069840;28;20048;-70
2023/12/13 09:45:29;;;;;;;3.25;0.77;;;;;;;7.83;100.00;99243.41;5069220;28;20029;-70
2023/12/13 09:47:55;;;;;;;2.80;0.80;;;;;;;7.85;100.00;99260.44;5070271;28;20032;-70
2023/12/13 09:50:22;;;;;;;4.05;0.50;;;;;;;7.89;100.00;99266.94;5069025;28;20025;-70
2023/12/13 09:52:49;;;;;;;1.90;0.55;;;;;;;7.91;100.00;99253.81;5068462;28;20043;-70
2023/12/13 09:55:15;;;;;;;1.83;0.35;;;;;;;7.94;100.00;99256.91;5068908;28;20032;-70
2023/12/13 09:57:41;;;;;;;4.15;0.40;;;;;;;7.95;100.00;99242.97;5065534;28;20032;-70
2023/12/13 10:00:07;;;;;;;3.40;0.47;;;;;;;7.96;100.00;99236.81;5069451;28;20066;-70
2023/12/13 10:02:33;;;;;;;1.70;0.30;;;;;;;7.97;100.00;99235.84;5067889;28;20473;-69
2023/12/13 10:04:59;;;;;;;0.95;0.30;;;;;;;7.98;100.00;99242.66;5067441;28;20042;-69
2023/12/13 10:07:27;;;;;;;1.77;0.40;;;;;;;8.01;100.00;99238.13;5069247;28;20115;-69
2023/12/13 10:09:55;;;;;;;1.40;0.50;;;;;;;8.04;100.00;99238.59;5067960;28;20588;-69
2023/12/13 10:12:21;;;;;;;1.70;0.60;;;;;;;7.99;100.00;99231.31;5069550;28;20493;-69
2023/12/13 10:14:47;;;;;;;1.20;0.30;;;;;;;7.98;100.00;99226.28;5069420;28;20028;-69
2023/12/13 10:17:12;;;;;;;1.00;0.40;;;;;;;7.96;100.00;99218.66;5068441;28;20508;-69
2023/12/13 10:19:38;;;;;;;5.35;0.43;;;;;;;7.97;100.00;99203.91;5069464;28;20032;-70
2023/12/13 10:22:05;;;;;;;1.80;0.68;;;;;;;8.01;100.00;99209.59;5070055;28;20051;-69
2023/12/13 10:24:31;;;;;;;1.27;0.30;;;;;;;8.04;100.00;99206.66;5067423;28;20036;-69
2023/12/13 10:26:57;;;;;;;1.42;0.30;;;;;;;8.09;100.00;99202.63;5066420;28;20486;-69
2023/12/13 10:29:23;;;;;;;0.40;0.20;;;;;;;8.16;100.00;99201.03;5068683;28;20056;-70
2023/12/13 10:31:48;;;;;;;4.35;0.30;;;;;;;8.18;100.00;99212.06;5069584;28;20119;-69
2023/12/13 10:34:15;;;;;;;1.73;0.60;;;;;;;8.16;100.00;99219.19;5069729;28;20127;-70
2023/12/13 10:36:41;;;;;;;1.75;0.20;;;;;;;8.14;100.00;99226.31;5068894;28;20033;-69
2023/12/13 10:39:07;;;;;;;2.35;0.40;;;;;;;8.12;100.00;99204.09;5070166;28;20020;-69
2023/12/13 10:41:34;;;;;;;2.47;0.20;;;;;;;8.10;100.00;99190.47;5069305;28;20028;-68
2023/12/13 10:44:02;;;;;;;1.42;0.40;;;;;;;8.10;100.00;99186.09;5070187;28;20391;-69
2023/12/13 10:46:33;;;;;;;4.65;0.70;;;;;;;8.11;100.00;99194.69;5068716;28;20040;-69
2023/12/13 10:49:05;;;;;;;3.85;0.30;;;;;;;8.16;100.00;99206.22;5069359;28;20056;-69
2023/12/13 10:51:32;;;;;;;4.15;1.10;;;;;;;8.20;100.00;99215.31;5068317;28;20049;-69
2023/12/13 10:53:58;;;;;;;10.05;0.68;;;;;;;8.24;100.00;99214.00;5070194;28;20524;-69
2023/12/13 10:56:24;;;;;;;3.42;0.75;;;;;;;8.28;100.00;99212.72;5068957;28;20104;-69
2023/12/13 10:58:51;;;;;;;2.33;0.65;;;;;;;8.31;100.00;99220.19;5073442;28;20521;-69
2023/12/13 11:01:18;;;;;;;1.13;0.40;;;;;;;8.30;100.00;99215.97;5072671;28;20122;-69
2023/12/13 11:03:48;;;;;;;1.77;0.65;;;;;;;8.27;100.00;99198.13;5070729;28;20030;-69
2023/12/13 11:06:15;;;;;;;2.78;0.40;;;;;;;8.29;100.00;99192.78;5070929;28;20612;-69
2023/12/13 11:08:43;;;;;;;3.05;1.10;;;;;;;8.28;100.00;99180.78;5068596;28;20389;-69
2023/12/13 11:11:13;;;;;;;2.97;1.05;;;;;;;8.28;100.00;99170.38;5068351;28;20048;-69
2023/12/13 11:13:52;;;;;;;3.33;0.90;;;;;;;8.22;100.00;99182.22;5070640;28;20123;-69
2023/12/13 11:16:25;;;;;;;2.50;0.70;;;;;;;8.21;100.00;99187.56;5067477;28;20033;-69
2023/12/13 11:18:53;;;;;;;2.20;0.55;;;;;;;8.22;100.00;99182.22;5072403;28;20114;-69
2023/12/13 11:21:26;;;;;;;2.35;0.50;;;;;;;8.23;100.00;99177.84;5071794;28;20111;-70
2023/12/13 11:23:54;;;;;;;2.00;0.40;;;;;;;8.24;100.00;99179.47;5071799;28;20477;-70
2023/12/13 11:26:22;;;;;;;1.83;0.30;;;;;;;8.26;100.00;99182.72;5071432;28;20177;-69
2023/12/13 11:28:54;;;;;;;1.30;0.40;;;;;;;8.28;100.00;99175.59;5072713;28;20108;-69